Home   Weather   Poland   Wroclaw   Past weeks
Flag for Poland

Past Weather in Wroclaw, Poland — Yesterday and Last 2 Weeks

Currently: 79 °F. Passing clouds. (Weather station: Wroclaw Ii, Poland). See more current weather

Past Weather in Wroclaw — Graph

°F

Wroclaw Temperature Yesterday

Maximum temperature yesterday: 68 °F (at 4:00 pm)
Minimum temperature yesterday: 45 °F (at 4:30 am)
Average temperature yesterday: 57 °F

High & Low Weather Summary for the Past Weeks

 TemperatureHumidityPressure
High81 °F (May 11, 3:30 pm)100% (May 5, 10:00 pm)30.39 "Hg (May 5, 10:00 pm)
Low43 °F (May 5, 3:00 am)17% (May 18, 4:30 pm)29.83 "Hg (May 12, 12:30 am)
Average61 °F57%30.13 "Hg
* Reported May 4 2:00 pm — May 19 2:00 pm, Wroclaw. Weather by CustomWeather, © 2022

Note: Actual official high and low records may vary slightly from our data, if they occured in-between our weather recording intervals... More about our weather records

Wroclaw Weather History for the Previous 24 Hours

Scroll right to see more
 ConditionsComfort  
Time TempWeatherWind HumidityBarometerVisibility
2:00 pm
Thu, May 19
77 °FPassing clouds.9 mph24%30.21 "HgN/A
1:30 pm77 °FPassing clouds.8 mph28%30.21 "HgN/A
1:00 pm75 °FSunny.5 mph25%30.24 "Hg10 mi
12:30 pm73 °FSunny.6 mph23%30.24 "Hg10 mi
12:00 pm73 °FPassing clouds.7 mph25%30.24 "HgN/A
11:30 am73 °FPassing clouds.5 mph25%30.27 "HgN/A
11:00 am72 °FPassing clouds.5 mph31%30.27 "HgN/A
10:30 am70 °FSunny.3 mph31%30.27 "Hg10 mi
10:00 am68 °FPassing clouds.6 mph33%30.27 "HgN/A
9:30 am68 °FPassing clouds.7 mph35%30.27 "HgN/A
9:00 am64 °FPassing clouds.5 mph43%30.27 "HgN/A
8:30 am61 °FSunny.7 mph48%30.27 "Hg10 mi
8:00 am59 °FPassing clouds.6 mph48%30.30 "HgN/A
7:30 am55 °FSunny.6 mph55%30.27 "Hg10 mi
7:00 am50 °FSunny.7 mph67%30.27 "Hg10 mi
6:30 am46 °FSunny.6 mph71%30.27 "Hg10 mi
6:00 am45 °FSunny.5 mph71%30.27 "Hg10 mi
5:30 am43 °FSunny.5 mph71%30.27 "Hg10 mi
5:00 am43 °FSunny.6 mph71%30.27 "Hg10 mi
4:30 am43 °FClear.5 mph71%30.30 "Hg10 mi
4:00 am45 °FClear.6 mph61%30.30 "Hg10 mi
3:30 am46 °FClear.5 mph57%30.30 "Hg10 mi
3:00 am46 °FClear.6 mph57%30.30 "Hg10 mi
2:30 am46 °FClear.6 mph57%30.30 "Hg10 mi
2:00 am48 °FClear.6 mph54%30.30 "Hg10 mi
1:30 am46 °FClear.7 mph53%30.30 "Hg10 mi
1:00 am50 °FClear.6 mph50%30.30 "Hg10 mi
12:30 am48 °FClear.6 mph54%30.33 "Hg10 mi
12:00 am48 °FClear.6 mph54%30.33 "Hg10 mi
11:30 pm
Wed, May 18
50 °FClear.6 mph47%30.33 "Hg10 mi
11:00 pm52 °FClear.6 mph47%30.33 "Hg10 mi
10:00 pm54 °FClear.5 mph44%30.33 "Hg10 mi
9:30 pm55 °FClear.6 mph41%30.33 "Hg10 mi
9:00 pm57 °FClear.7 mph36%30.33 "Hg10 mi
8:30 pm59 °FSunny.7 mph34%30.33 "Hg10 mi
8:00 pm61 °FSunny.8 mph34%30.33 "Hg10 mi
7:30 pm64 °FSunny.9 mph30%30.33 "Hg10 mi
7:00 pm66 °FSunny.8 mph26%30.33 "Hg10 mi
6:30 pm66 °FPassing clouds.7 mph21%30.33 "HgN/A
6:00 pm68 °FPassing clouds.8 mph20%30.33 "HgN/A
5:30 pm68 °FPassing clouds.8 mph20%30.33 "HgN/A
5:00 pm68 °FPassing clouds.8 mph20%30.33 "HgN/A
4:30 pm68 °FPassing clouds.7 mph17%30.33 "HgN/A
4:00 pm68 °FPassing clouds.8 mph20%30.36 "HgN/A
3:30 pm66 °FPassing clouds.9 mph19%30.36 "HgN/A
3:00 pm66 °FSunny.6 mph19%30.36 "Hg10 mi
Weather by CustomWeather, © 2022

See weather overview